createdAt,value
2022-12-23T00:01:00.076Z,10.92
2022-12-23T00:03:29.234Z,10.79
2022-12-23T00:05:57.314Z,10.71
2022-12-23T00:08:25.720Z,10.74
2022-12-23T00:10:57.576Z,10.76
2022-12-23T00:13:42.654Z,10.76
2022-12-23T00:16:12.202Z,10.74
2022-12-23T00:18:40.866Z,10.74
2022-12-23T00:21:11.272Z,10.75
2022-12-23T00:23:40.724Z,10.76
2022-12-23T00:26:15.454Z,10.63
2022-12-23T00:28:43.118Z,10.59
2022-12-23T00:31:13.684Z,10.56
2022-12-23T00:33:43.221Z,10.48
2022-12-23T00:36:19.327Z,10.46
2022-12-23T00:39:04.813Z,10.38
2022-12-23T00:41:52.163Z,10.32
2022-12-23T00:44:19.947Z,10.21
2022-12-23T00:46:47.588Z,10.05
2022-12-23T00:49:34.239Z,10.03
2022-12-23T00:52:02.663Z,10.00
2022-12-23T00:54:31.915Z,10.02
2022-12-23T00:57:01.248Z,9.98
2022-12-23T00:59:28.943Z,9.95
2022-12-23T01:02:14.517Z,10.04
2022-12-23T01:04:59.634Z,10.05
2022-12-23T01:07:27.363Z,9.96
2022-12-23T01:09:55.078Z,9.89
2022-12-23T01:12:24.214Z,9.84
2022-12-23T01:14:51.867Z,9.95
2022-12-23T01:17:19.739Z,10.04
2022-12-23T01:19:47.549Z,10.10
2022-12-23T01:22:15.181Z,10.16
2022-12-23T01:24:42.926Z,10.26
2022-12-23T01:27:10.559Z,10.28
2022-12-23T01:29:39.575Z,10.15
2022-12-23T01:32:07.296Z,10.01
2022-12-23T01:34:37.519Z,9.99
2022-12-23T01:37:05.797Z,9.96
2022-12-23T01:39:33.538Z,9.87
2022-12-23T01:42:18.643Z,9.90
2022-12-23T01:44:59.956Z,9.80
2022-12-23T01:47:33.183Z,9.77
2022-12-23T01:50:06.197Z,9.73
2022-12-23T01:52:37.009Z,9.79
2022-12-23T01:55:05.031Z,9.86
2022-12-23T01:57:32.988Z,9.89
2022-12-23T02:00:31.193Z,9.92
2022-12-23T02:03:16.524Z,9.92
2022-12-23T02:05:45.955Z,9.93
2022-12-23T02:08:33.147Z,9.94
2022-12-23T02:11:26.419Z,9.97
2022-12-23T02:14:22.600Z,10.01
2022-12-23T02:17:00.375Z,9.97
2022-12-23T02:19:53.817Z,9.93
2022-12-23T02:22:43.651Z,9.98
2022-12-23T02:25:43.923Z,9.94
2022-12-23T02:28:41.438Z,10.00
2022-12-23T02:31:21.202Z,10.02
2022-12-23T02:33:58.095Z,10.03
2022-12-23T02:36:38.816Z,10.05
2022-12-23T02:39:10.883Z,10.10
2022-12-23T02:41:48.213Z,10.16
2022-12-23T02:44:28.219Z,10.20
2022-12-23T02:47:05.014Z,10.19
2022-12-23T02:49:36.508Z,10.15
2022-12-23T02:52:08.450Z,10.14
2022-12-23T02:54:41.946Z,10.21
2022-12-23T02:57:12.586Z,10.20
2022-12-23T02:59:44.911Z,10.23
2022-12-23T03:02:14.545Z,10.30
2022-12-23T03:04:42.657Z,10.37
2022-12-23T03:07:18.600Z,10.42
2022-12-23T03:09:58.330Z,10.46
2022-12-23T03:12:37.066Z,10.44
2022-12-23T03:15:25.820Z,10.48
2022-12-23T03:18:03.698Z,10.48
2022-12-23T03:20:38.897Z,10.51
2022-12-23T03:23:14.253Z,10.52
2022-12-23T03:25:47.585Z,10.51
2022-12-23T03:28:21.167Z,10.56
2022-12-23T03:30:53.784Z,10.57
2022-12-23T03:33:27.038Z,10.61
2022-12-23T03:35:59.239Z,10.66
2022-12-23T03:38:28.564Z,10.67
2022-12-23T03:40:59.777Z,10.69
2022-12-23T03:43:31.792Z,10.73
2022-12-23T03:46:02.103Z,10.78
2022-12-23T03:48:35.569Z,10.81
2022-12-23T03:51:06.773Z,10.87
2022-12-23T03:53:39.243Z,10.87
2022-12-23T03:56:11.545Z,10.89
2022-12-23T03:58:43.421Z,10.87
2022-12-23T04:01:26.695Z,10.90
2022-12-23T04:04:01.461Z,10.88
2022-12-23T04:06:35.379Z,10.91
2022-12-23T04:09:04.100Z,10.91
2022-12-23T04:11:32.051Z,10.92
2022-12-23T04:13:59.743Z,10.95
2022-12-23T04:16:28.393Z,10.98
2022-12-23T04:18:57.407Z,10.99
2022-12-23T04:21:25.042Z,10.97
2022-12-23T04:23:52.751Z,10.95
2022-12-23T04:26:20.445Z,10.91
2022-12-23T04:28:48.133Z,10.93
2022-12-23T04:31:15.788Z,10.95
2022-12-23T04:33:43.523Z,10.97
2022-12-23T04:36:12.531Z,10.99
2022-12-23T04:38:40.160Z,10.98
2022-12-23T04:41:07.858Z,10.99
2022-12-23T04:43:35.889Z,11.00
2022-12-23T04:46:03.577Z,10.98
2022-12-23T04:48:31.239Z,11.02
2022-12-23T04:50:58.909Z,11.04
2022-12-23T04:53:27.921Z,11.04
2022-12-23T04:55:55.556Z,11.10
2022-12-23T04:58:25.065Z,11.13
2022-12-23T05:01:02.632Z,11.12
2022-12-23T05:03:30.365Z,11.15
2022-12-23T05:05:58.298Z,11.13
2022-12-23T05:08:26.055Z,11.13
2022-12-23T05:10:55.253Z,11.21
2022-12-23T05:13:23.225Z,11.24
2022-12-23T05:15:52.699Z,11.27
2022-12-23T05:18:21.580Z,11.27
2022-12-23T05:20:50.214Z,11.28
2022-12-23T05:23:18.068Z,11.32
2022-12-23T05:25:52.161Z,11.23
2022-12-23T05:28:21.675Z,11.22
2022-12-23T05:30:49.821Z,11.25
2022-12-23T05:33:17.556Z,11.26
2022-12-23T05:35:45.348Z,11.25
2022-12-23T05:38:12.985Z,11.25
2022-12-23T05:40:40.618Z,11.27
2022-12-23T05:43:08.507Z,11.32
2022-12-23T05:45:37.665Z,11.33
2022-12-23T05:48:05.376Z,11.36
2022-12-23T05:50:33.224Z,11.36
2022-12-23T05:53:00.867Z,11.32
2022-12-23T05:55:28.639Z,11.37
2022-12-23T05:57:56.314Z,11.38
2022-12-23T06:00:24.252Z,11.39
2022-12-23T06:02:54.266Z,11.37
2022-12-23T06:05:22.709Z,11.39
2022-12-23T06:07:50.370Z,11.41
2022-12-23T06:10:18.152Z,11.40
2022-12-23T06:12:45.828Z,11.44
2022-12-23T06:15:13.690Z,11.46
2022-12-23T06:17:41.351Z,11.47
2022-12-23T06:20:18.100Z,11.53
2022-12-23T06:22:48.299Z,11.56
2022-12-23T06:25:16.199Z,11.54
2022-12-23T06:27:43.831Z,11.59
2022-12-23T06:30:12.163Z,11.63
2022-12-23T06:32:39.872Z,11.60
2022-12-23T06:35:08.070Z,11.57
2022-12-23T06:37:37.171Z,11.58
2022-12-23T06:40:05.723Z,11.61
2022-12-23T06:42:34.005Z,11.69
2022-12-23T06:45:01.835Z,11.67
2022-12-23T06:47:29.567Z,11.65
2022-12-23T06:49:57.258Z,11.66
2022-12-23T06:52:24.865Z,11.76
2022-12-23T06:54:53.983Z,11.89
2022-12-23T06:57:21.783Z,11.95
2022-12-23T06:59:49.711Z,11.86
2022-12-23T07:02:17.498Z,11.80
2022-12-23T07:04:45.188Z,11.73
2022-12-23T07:07:13.224Z,11.79
2022-12-23T07:09:40.830Z,11.80
2022-12-23T07:12:09.922Z,11.79
2022-12-23T07:14:37.571Z,11.80
2022-12-23T07:17:05.228Z,11.75
2022-12-23T07:19:32.825Z,11.75
2022-12-23T07:22:00.475Z,11.77
2022-12-23T07:24:28.087Z,11.81
2022-12-23T07:26:56.004Z,11.83
2022-12-23T07:29:25.019Z,11.86
2022-12-23T07:31:53.065Z,11.79
2022-12-23T07:34:20.859Z,11.79
2022-12-23T07:36:48.591Z,11.84
2022-12-23T07:39:16.259Z,11.83
2022-12-23T07:41:43.985Z,11.92
2022-12-23T07:44:11.633Z,11.90
2022-12-23T07:46:40.917Z,11.91
2022-12-23T07:49:09.510Z,11.93
2022-12-23T07:51:37.088Z,11.83
2022-12-23T07:54:05.143Z,11.88
2022-12-23T07:56:32.754Z,11.92
2022-12-23T07:59:00.352Z,11.90
2022-12-23T08:01:28.094Z,11.93
2022-12-23T08:03:57.259Z,11.89
2022-12-23T08:06:24.948Z,11.88
2022-12-23T08:08:52.555Z,11.93
2022-12-23T08:11:20.251Z,11.96
2022-12-23T08:13:49.200Z,11.96
2022-12-23T08:16:16.892Z,11.98
2022-12-23T08:18:44.523Z,11.90
2022-12-23T08:21:15.752Z,11.93
2022-12-23T08:23:43.977Z,11.95
2022-12-23T08:26:13.337Z,11.89
2022-12-23T08:28:42.471Z,11.84
2022-12-23T08:31:11.909Z,11.84
2022-12-23T08:33:41.109Z,11.83
2022-12-23T08:36:11.559Z,11.85
2022-12-23T08:38:40.631Z,11.84
2022-12-23T08:41:10.660Z,11.86
2022-12-23T08:43:38.409Z,11.86
2022-12-23T08:46:07.347Z,11.85
2022-12-23T08:48:36.249Z,11.92
2022-12-23T08:51:05.703Z,11.87
2022-12-23T08:53:34.002Z,11.85
2022-12-23T08:56:05.784Z,11.96
2022-12-23T08:58:36.749Z,12.00
2022-12-23T09:01:05.481Z,12.00
2022-12-23T09:03:33.589Z,12.05
2022-12-23T09:06:05.828Z,12.10
2022-12-23T09:08:33.692Z,12.09
2022-12-23T09:11:01.658Z,12.11
2022-12-23T09:13:35.577Z,12.05
2022-12-23T09:16:03.971Z,12.08
2022-12-23T09:18:32.094Z,12.08
2022-12-23T09:21:00.768Z,12.13
2022-12-23T09:23:29.081Z,12.11
2022-12-23T09:25:57.169Z,12.13
2022-12-23T09:28:25.948Z,12.18
2022-12-23T09:30:54.977Z,12.23
2022-12-23T09:33:22.695Z,12.24
2022-12-23T09:35:50.485Z,12.21
2022-12-23T09:38:18.062Z,12.21
2022-12-23T09:40:45.793Z,12.24
2022-12-23T09:43:25.657Z,12.26
2022-12-23T09:46:05.297Z,12.30
2022-12-23T09:48:36.523Z,12.29
2022-12-23T09:51:05.835Z,12.35
2022-12-23T09:53:45.411Z,12.34
2022-12-23T09:56:19.450Z,12.29
2022-12-23T09:58:55.441Z,12.23
2022-12-23T10:01:32.682Z,12.28
2022-12-23T10:04:31.254Z,12.36
2022-12-23T10:07:16.940Z,12.36
2022-12-23T10:09:47.420Z,12.40
2022-12-23T10:12:27.280Z,12.45
2022-12-23T10:14:59.675Z,12.46
2022-12-23T10:17:33.432Z,12.47
2022-12-23T10:20:04.720Z,12.48
2022-12-23T10:22:38.528Z,12.50
2022-12-23T10:25:17.206Z,12.48
2022-12-23T10:27:45.819Z,12.48
2022-12-23T10:30:42.520Z,12.56
2022-12-23T10:33:09.569Z,12.58
2022-12-23T10:35:45.546Z,12.51
2022-12-23T10:38:25.815Z,12.54
2022-12-23T10:41:03.878Z,12.50
2022-12-23T10:43:49.531Z,12.60
2022-12-23T10:46:26.254Z,12.60
2022-12-23T10:49:04.598Z,12.64
2022-12-23T10:51:39.570Z,12.64
2022-12-23T10:54:14.012Z,12.60
2022-12-23T10:56:41.802Z,12.57
2022-12-23T10:59:15.007Z,12.47
2022-12-23T11:01:48.170Z,12.47
2022-12-23T11:04:21.219Z,12.47
2022-12-23T11:07:18.282Z,12.47
2022-12-23T11:09:43.052Z,12.42
2022-12-23T11:12:12.587Z,12.46
2022-12-23T11:14:42.585Z,12.51
2022-12-23T11:17:21.053Z,12.55
2022-12-23T11:19:57.087Z,12.56
2022-12-23T11:22:26.568Z,12.53
2022-12-23T11:24:54.212Z,12.59
2022-12-23T11:27:21.850Z,12.63
2022-12-23T11:29:52.511Z,12.64
2022-12-23T11:32:23.361Z,12.70
2022-12-23T11:34:53.473Z,12.80
2022-12-23T11:37:35.817Z,12.81
2022-12-23T11:40:05.429Z,12.79
2022-12-23T11:42:35.496Z,12.84
2022-12-23T11:45:08.462Z,12.87
2022-12-23T11:47:40.941Z,12.79
2022-12-23T11:50:28.713Z,12.77
2022-12-23T11:53:02.298Z,12.77
2022-12-23T11:55:33.734Z,12.68
2022-12-23T11:58:02.847Z,12.82
2022-12-23T12:00:36.477Z,12.86
2022-12-23T12:03:05.804Z,12.86
2022-12-23T12:05:37.376Z,12.90
2022-12-23T12:08:07.718Z,12.88
2022-12-23T12:10:37.669Z,12.91
2022-12-23T12:13:07.892Z,12.91
2022-12-23T12:15:45.683Z,12.89
2022-12-23T12:18:16.940Z,12.88
2022-12-23T12:20:48.158Z,12.88
2022-12-23T12:23:19.549Z,12.92
2022-12-23T12:25:51.623Z,12.96
2022-12-23T12:28:24.456Z,12.95
2022-12-23T12:30:57.827Z,12.89
2022-12-23T12:33:33.468Z,12.95
2022-12-23T12:36:12.542Z,12.97
2022-12-23T12:38:41.149Z,12.96
2022-12-23T12:41:17.305Z,12.94
2022-12-23T12:43:51.973Z,12.93
2022-12-23T12:46:28.341Z,12.84
2022-12-23T12:49:00.281Z,12.80
2022-12-23T12:51:32.911Z,12.80
2022-12-23T12:54:07.129Z,12.71
2022-12-23T12:56:42.009Z,12.72
2022-12-23T12:59:17.491Z,12.69
2022-12-23T13:01:53.900Z,12.66
2022-12-23T13:04:49.830Z,12.60
2022-12-23T13:07:28.872Z,12.53
2022-12-23T13:10:02.139Z,12.42
2022-12-23T13:12:40.897Z,12.43
2022-12-23T13:15:19.743Z,12.50
2022-12-23T13:18:01.927Z,12.51
2022-12-23T13:20:37.558Z,12.44
2022-12-23T13:23:41.748Z,12.42
2022-12-23T13:26:05.995Z,12.43
2022-12-23T13:28:42.289Z,12.48
2022-12-23T13:31:18.263Z,12.45
2022-12-23T13:33:54.591Z,12.43
2022-12-23T13:36:38.516Z,12.46
2022-12-23T13:39:23.880Z,12.51
2022-12-23T13:41:58.578Z,12.45
2022-12-23T13:44:31.467Z,12.46
2022-12-23T13:47:08.876Z,12.44
2022-12-23T13:49:52.940Z,12.48
2022-12-23T13:52:29.881Z,12.49
2022-12-23T13:55:13.128Z,12.43
2022-12-23T13:57:49.971Z,12.44
2022-12-23T14:00:27.837Z,12.34
2022-12-23T14:03:17.850Z,12.25
2022-12-23T14:05:46.988Z,12.17
2022-12-23T14:08:24.871Z,12.19
2022-12-23T14:10:55.901Z,12.17
2022-12-23T14:13:26.354Z,12.24
2022-12-23T14:16:25.642Z,12.23
2022-12-23T14:19:21.356Z,12.16
2022-12-23T14:21:59.019Z,12.21
2022-12-23T14:25:10.468Z,12.20
2022-12-23T14:27:51.388Z,12.21
2022-12-23T14:30:24.349Z,12.18
2022-12-23T14:32:53.659Z,12.04
2022-12-23T14:35:27.664Z,12.09
2022-12-23T14:38:29.523Z,12.17
2022-12-23T14:41:23.856Z,12.20
2022-12-23T14:43:58.057Z,12.14
2022-12-23T14:46:57.477Z,12.13
2022-12-23T14:49:39.717Z,12.18
2022-12-23T14:52:46.469Z,12.23
2022-12-23T14:55:46.130Z,12.23
2022-12-23T14:58:32.244Z,12.22
2022-12-23T15:01:05.649Z,12.23
2022-12-23T15:03:41.169Z,12.21
2022-12-23T15:06:08.845Z,12.15
2022-12-23T15:08:40.034Z,12.14
2022-12-23T15:14:39.321Z,12.16
2022-12-23T15:17:19.527Z,12.06
2022-12-23T15:19:48.091Z,12.11
2022-12-23T15:22:22.732Z,12.15
2022-12-23T15:24:53.248Z,12.07
2022-12-23T15:27:30.242Z,12.03
2022-12-23T15:29:58.640Z,11.95
2022-12-23T15:32:29.474Z,11.94
2022-12-23T15:35:03.567Z,11.98
2022-12-23T15:37:32.672Z,11.97
2022-12-23T15:40:11.537Z,11.95
2022-12-23T15:42:40.619Z,11.97
2022-12-23T15:45:34.915Z,12.03
2022-12-23T15:48:05.490Z,12.02
2022-12-23T15:50:40.547Z,12.07
2022-12-23T15:53:11.064Z,12.10
2022-12-23T15:55:41.709Z,12.13
2022-12-23T15:58:16.479Z,12.14
2022-12-23T16:00:52.794Z,12.12
2022-12-23T16:03:28.087Z,12.10
2022-12-23T16:05:56.059Z,12.14
2022-12-23T16:53:31.233Z,12.00
2022-12-23T16:56:01.273Z,12.04
2022-12-23T16:58:29.464Z,12.07
2022-12-23T17:00:57.428Z,12.08
2022-12-23T17:03:25.058Z,12.09
2022-12-23T17:05:53.064Z,12.10
2022-12-23T17:08:20.724Z,12.10
2022-12-23T17:10:48.385Z,12.08
2022-12-23T17:13:19.508Z,12.16
2022-12-23T17:15:47.165Z,12.22
2022-12-23T17:18:16.806Z,12.21
2022-12-23T17:20:45.864Z,12.20
2022-12-23T17:23:26.598Z,12.19
2022-12-23T17:25:54.485Z,12.21
2022-12-23T17:28:23.827Z,12.21
2022-12-23T17:30:55.706Z,12.19
2022-12-23T17:33:27.807Z,12.22
2022-12-23T17:35:55.968Z,12.26
2022-12-23T17:38:23.804Z,12.24
2022-12-23T17:40:51.677Z,12.23
2022-12-23T17:43:19.996Z,12.26
2022-12-23T17:45:49.020Z,12.26
2022-12-23T17:48:22.164Z,12.20
2022-12-23T17:50:50.958Z,12.21
2022-12-23T17:53:20.193Z,12.18
2022-12-23T17:55:47.970Z,12.21
2022-12-23T17:58:16.207Z,12.21
2022-12-23T18:00:43.894Z,12.27
2022-12-23T18:03:23.154Z,12.26
2022-12-23T18:05:57.245Z,12.31
2022-12-23T18:08:28.753Z,12.30
2022-12-23T18:10:56.616Z,12.30
2022-12-23T18:13:24.273Z,12.31
2022-12-23T18:15:52.603Z,12.30
2022-12-23T18:18:33.051Z,12.32
2022-12-23T18:21:06.313Z,12.33
2022-12-23T18:23:37.155Z,12.32
2022-12-23T18:26:05.439Z,12.32
2022-12-23T18:28:33.120Z,12.36
2022-12-23T18:31:00.785Z,12.36
2022-12-23T18:33:30.292Z,12.34
2022-12-23T18:35:58.389Z,12.36
2022-12-23T18:38:26.116Z,12.38
2022-12-23T18:40:54.857Z,12.41
2022-12-23T18:43:24.739Z,12.41
2022-12-23T18:45:54.098Z,12.46
2022-12-23T18:48:22.077Z,12.43
2022-12-23T18:50:52.204Z,12.41
2022-12-23T18:53:25.099Z,12.45
2022-12-23T18:55:54.174Z,12.45
2022-12-23T18:58:22.586Z,12.46
2022-12-23T19:00:52.532Z,12.46
2022-12-23T19:03:24.835Z,12.50
2022-12-23T19:05:55.305Z,12.51
2022-12-23T19:08:26.708Z,12.53
2022-12-23T19:10:56.009Z,12.51
2022-12-23T19:13:23.877Z,12.54
2022-12-23T19:15:51.898Z,12.55
2022-12-23T19:18:22.193Z,12.55
2022-12-23T19:20:50.435Z,12.58
2022-12-23T19:23:19.440Z,12.58
2022-12-23T19:25:54.379Z,12.65
2022-12-23T19:28:22.852Z,12.65
2022-12-23T19:30:50.806Z,12.62
2022-12-23T19:33:18.507Z,12.61
2022-12-23T19:35:46.136Z,12.60
2022-12-23T19:38:13.775Z,12.63
2022-12-23T19:40:42.783Z,12.63
2022-12-23T19:43:11.321Z,12.62
2022-12-23T19:45:39.013Z,12.64
2022-12-23T19:48:07.021Z,12.68
2022-12-23T19:50:34.651Z,12.62
2022-12-23T19:53:02.295Z,12.64
2022-12-23T19:55:30.290Z,12.67
2022-12-23T19:57:59.298Z,12.70
2022-12-23T20:00:26.922Z,12.72
2022-12-23T20:02:58.660Z,12.71
2022-12-23T20:05:26.901Z,12.73
2022-12-23T20:07:54.497Z,12.75
2022-12-23T20:10:22.093Z,12.75
2022-12-23T20:12:50.098Z,12.76
2022-12-23T20:15:19.217Z,12.77
2022-12-23T20:17:46.874Z,12.77
2022-12-23T20:20:14.697Z,12.74
2022-12-23T20:22:42.304Z,12.72
2022-12-23T20:25:10.298Z,12.73
2022-12-23T20:27:38.710Z,12.79
2022-12-23T20:30:07.626Z,12.82
2022-12-23T20:32:36.559Z,12.79
2022-12-23T20:35:04.468Z,12.84
2022-12-23T20:37:32.080Z,12.82
2022-12-23T20:39:59.736Z,12.82
2022-12-23T20:42:28.012Z,12.86
2022-12-23T20:44:55.690Z,12.86
2022-12-23T20:47:23.384Z,12.84
2022-12-23T20:49:52.454Z,12.87
2022-12-23T20:52:20.064Z,12.81
2022-12-23T20:54:47.709Z,12.77
2022-12-23T20:57:15.375Z,12.71
2022-12-23T20:59:43.005Z,12.68
2022-12-23T21:02:13.021Z,12.57
2022-12-23T21:04:40.818Z,12.49
2022-12-23T21:07:10.052Z,12.44
2022-12-23T21:09:37.878Z,12.45
2022-12-23T21:12:05.836Z,12.47
2022-12-23T21:14:33.728Z,12.49
2022-12-23T21:17:01.305Z,12.46
2022-12-23T21:19:29.087Z,12.42
2022-12-23T21:21:58.389Z,12.34
2022-12-23T21:24:27.693Z,12.31
2022-12-23T21:26:56.833Z,12.34
2022-12-23T21:29:25.467Z,12.09
2022-12-23T21:31:53.198Z,11.90
2022-12-23T21:34:20.979Z,11.84
2022-12-23T21:36:48.992Z,11.61
2022-12-23T21:39:17.659Z,11.48
2022-12-23T21:41:49.105Z,11.38
2022-12-23T21:44:16.777Z,11.43
2022-12-23T21:46:44.473Z,11.48
2022-12-23T21:49:12.354Z,11.59
2022-12-23T21:51:41.528Z,11.63
2022-12-23T21:54:10.851Z,11.50
2022-12-23T21:56:39.685Z,11.32
2022-12-23T21:59:11.339Z,11.36
2022-12-23T22:01:39.061Z,11.42
2022-12-23T22:04:07.401Z,11.56
2022-12-23T22:06:37.675Z,11.54
2022-12-23T22:09:06.842Z,11.59
2022-12-23T22:11:36.368Z,11.56
2022-12-23T22:14:05.516Z,11.62
2022-12-23T22:16:35.449Z,11.70
2022-12-23T22:19:04.791Z,11.77
2022-12-23T22:21:33.682Z,11.80
2022-12-23T22:24:01.616Z,11.86
2022-12-23T22:26:31.079Z,11.88
2022-12-23T22:29:00.935Z,11.95
2022-12-23T22:31:32.769Z,11.99
2022-12-23T22:34:02.221Z,12.07
2022-12-23T22:36:29.939Z,12.11
2022-12-23T22:38:59.396Z,12.04
2022-12-23T22:41:29.282Z,11.99
2022-12-23T22:43:57.643Z,12.00
2022-12-23T22:46:26.116Z,12.01
2022-12-23T22:48:54.601Z,12.03
2022-12-23T22:51:26.123Z,12.09
2022-12-23T22:53:54.393Z,12.11
2022-12-23T22:56:23.531Z,12.17
2022-12-23T22:58:51.994Z,12.25
2022-12-23T23:01:22.913Z,12.22
2022-12-23T23:04:01.235Z,12.16
2022-12-23T23:06:32.135Z,12.19
2022-12-23T23:09:00.062Z,12.07
2022-12-23T23:11:29.188Z,11.90
2022-12-23T23:13:57.788Z,11.85
2022-12-23T23:16:26.401Z,11.87
2022-12-23T23:18:54.985Z,11.99
2022-12-23T23:21:22.780Z,12.04
2022-12-23T23:23:51.789Z,12.06
2022-12-23T23:26:20.154Z,12.06
2022-12-23T23:28:48.633Z,12.07
2022-12-23T23:31:41.163Z,12.03
2022-12-23T23:34:03.910Z,12.04
2022-12-23T23:36:31.889Z,12.05
2022-12-23T23:39:00.862Z,12.02
2022-12-23T23:41:28.470Z,12.01
2022-12-23T23:43:56.109Z,12.06
2022-12-23T23:46:24.141Z,12.00
2022-12-23T23:48:51.896Z,12.00
2022-12-23T23:51:19.550Z,11.95
2022-12-23T23:53:47.233Z,11.94
2022-12-23T23:56:21.951Z,11.95
2022-12-23T23:58:52.579Z,11.93
